KHOB/HOB METAR and TAF weather

Enter ICAO airport designator
Station Type Date Time Source
KHOB METAR 2021/05/14 13:25 UTC NOAA

KHOB 141325Z 12008KT 10SM OVC006 14/12 A3016


Station Type Date Time Source
KHOB Decoded METAR 2021/05/14 13:25 UTC NOAA

Hobbs / Lea County, NM, United States (KHOB) 32-41N 103-13W
May 14, 2021 - 09:25 AM EDT / 2021.05.14 1325 UTC
Wind: from the ESE (120 degrees) at 9 MPH (8 KT):0
Visibility: 10 mile(s):0
Sky conditions: overcast
Temperature: 57 F (14 C)
Dew Point: 53 F (12 C)
Relative Humidity: 87%
Pressure (altimeter): 30.16 in. Hg (1021 hPa)
ob: KHOB 141325Z 12008KT 10SM OVC006 14/12 A3016
cycle: 13

Station Type Date Time Source
KHOB TAF 2021/05/14 13:24 UTC NOAA

TAF
AMD KHOB 141321Z 1413/1512 11009KT P6SM BKN010
FM141700 16016KT P6SM SCT100
FM150500 15009KT P6SM SCT100

Example: see airport list